Westfield, Wisconsin
Current Conditions -  °F | °C
As of 9:56 PM on Sunday 21 Dec 2014 (Local Time) from KY50 Reporting Station
Overcast Overcast  
Wind Chill: 28°   Ceiling: 1400
Heat Index: 36°   Visibility: 8mi
Dew Point: 32°   Wind: 12mph
Humidity: 86%   Direction: 160°SSE
Pressure: 29.94"   Gusts: NA
Location:  43.88°N, 89.49°W
Report Text: KY50 220356Z AUTO 16010KT 8SM OVC014 02/00 A2994 RMK AO2 TSNO T00220000 SLP143
Loading
Personal Weather Stations






























Interactive Weather Map New forecast layout! Learn more

10-Day Weather Forecast

Advertisements
Track Severe Weather on mobile